createdAt,value
2023-04-11T00:00:09.544Z,41.05
2023-04-11T00:01:11.702Z,44.30
2023-04-11T00:02:13.970Z,47.22
2023-04-11T00:03:16.991Z,46.95
2023-04-11T00:04:20.785Z,42.92
2023-04-11T00:05:23.350Z,43.17
2023-04-11T00:06:30.971Z,45.40
2023-04-11T00:07:33.457Z,41.92
2023-04-11T00:08:35.769Z,45.13
2023-04-11T00:09:37.910Z,47.30
2023-04-11T00:10:40.064Z,44.38
2023-04-11T00:11:43.643Z,47.28
2023-04-11T00:12:45.818Z,46.67
2023-04-11T00:13:48.718Z,41.83
2023-04-11T00:14:56.653Z,41.47
2023-04-11T00:15:59.352Z,45.60
2023-04-11T00:17:01.939Z,64.43
2023-04-11T00:18:04.380Z,92.15
2023-04-11T00:19:07.513Z,97.47
2023-04-11T00:20:12.005Z,106.93
2023-04-11T00:21:14.132Z,116.18
2023-04-11T00:22:17.997Z,115.40
2023-04-11T00:23:20.449Z,115.85
2023-04-11T00:24:23.144Z,95.93
2023-04-11T00:25:25.436Z,84.57
2023-04-11T00:26:27.908Z,57.67
2023-04-11T00:27:31.593Z,54.55
2023-04-11T00:28:33.853Z,45.28
2023-04-11T00:29:37.019Z,39.15
2023-04-11T00:30:39.301Z,68.28
2023-04-11T00:31:41.700Z,56.85
2023-04-11T00:32:46.700Z,61.08
2023-04-11T00:33:48.880Z,60.33
2023-04-11T00:34:51.493Z,64.10
2023-04-11T00:35:53.660Z,56.63
2023-04-11T00:36:56.023Z,58.15
2023-04-11T00:37:58.719Z,46.08
2023-04-11T00:39:04.062Z,39.55
2023-04-11T00:40:07.787Z,54.60
2023-04-11T00:41:11.593Z,60.53
2023-04-11T00:42:13.699Z,47.55
2023-04-11T00:43:17.162Z,45.17
2023-04-11T00:44:19.293Z,39.58
2023-04-11T00:45:21.637Z,44.97
2023-04-11T00:46:25.133Z,39.75
2023-04-11T00:47:27.581Z,36.00
2023-04-11T00:48:30.558Z,30.38
2023-04-11T00:49:33.133Z,28.58
2023-04-11T00:50:42.369Z,34.88
2023-04-11T00:51:44.522Z,26.33
2023-04-11T00:52:48.786Z,25.15
2023-04-11T00:53:50.906Z,25.55
2023-04-11T00:54:53.120Z,26.02
2023-04-11T00:55:55.304Z,21.83
2023-04-11T00:56:59.636Z,23.80
2023-04-11T00:58:02.427Z,23.05
2023-04-11T00:59:06.083Z,21.27
2023-04-11T01:00:12.055Z,24.40
2023-04-11T01:01:16.719Z,22.33
2023-04-11T01:02:19.313Z,22.02
2023-04-11T01:03:22.917Z,20.90
2023-04-11T01:04:26.285Z,29.95
2023-04-11T01:05:29.960Z,18.70
2023-04-11T01:06:33.703Z,22.30
2023-04-11T01:07:37.707Z,24.63
2023-04-11T01:08:42.482Z,21.30
2023-04-11T01:09:45.619Z,22.85
2023-04-11T01:10:47.843Z,20.90
2023-04-11T01:11:50.548Z,18.55
2023-04-11T01:12:52.982Z,19.80
2023-04-11T01:13:56.023Z,19.98
2023-04-11T01:14:59.882Z,24.13
2023-04-11T01:16:02.414Z,20.33
2023-04-11T01:17:04.818Z,23.50
2023-04-11T01:18:09.052Z,18.15
2023-04-11T01:19:11.359Z,22.48
2023-04-11T01:20:13.732Z,22.58
2023-04-11T01:21:17.394Z,21.67
2023-04-11T01:22:23.147Z,19.35
2023-04-11T01:23:27.538Z,18.95
2023-04-11T01:24:29.847Z,22.50
2023-04-11T01:25:32.061Z,25.27
2023-04-11T01:26:34.291Z,19.20
2023-04-11T01:27:37.814Z,18.92
2023-04-11T01:28:39.903Z,23.80
2023-04-11T01:29:42.001Z,20.23
2023-04-11T01:30:45.798Z,20.30
2023-04-11T01:33:05.098Z,19.80
2023-04-11T01:34:07.821Z,21.65
2023-04-11T01:35:12.295Z,20.65
2023-04-11T01:36:14.572Z,20.63
2023-04-11T01:37:16.913Z,20.70
2023-04-11T01:38:19.048Z,19.33
2023-04-11T01:39:22.528Z,19.85
2023-04-11T01:40:24.950Z,20.40
2023-04-11T01:41:27.753Z,19.27
2023-04-11T01:42:31.888Z,19.30
2023-04-11T01:43:34.215Z,16.65
2023-04-11T01:44:37.525Z,16.65
2023-04-11T01:45:40.650Z,19.70
2023-04-11T01:46:43.210Z,17.05
2023-04-11T01:47:45.448Z,18.05
2023-04-11T01:48:49.618Z,17.70
2023-04-11T01:49:53.722Z,18.48
2023-04-11T01:50:55.990Z,16.90
2023-04-11T01:51:58.127Z,18.88
2023-04-11T01:53:00.389Z,15.55
2023-04-11T01:54:02.708Z,17.83
2023-04-11T01:55:07.341Z,19.65
2023-04-11T01:56:10.570Z,20.25
2023-04-11T01:57:12.683Z,15.95
2023-04-11T01:58:14.840Z,18.20
2023-04-11T01:59:17.002Z,20.52
2023-04-11T02:00:20.342Z,15.32
2023-04-11T02:01:22.812Z,18.48
2023-04-11T02:02:26.059Z,18.80
2023-04-11T02:03:28.434Z,16.02
2023-04-11T02:04:30.753Z,17.83
2023-04-11T02:05:33.066Z,18.60
2023-04-11T02:06:35.184Z,15.32
2023-04-11T02:07:37.683Z,17.27
2023-04-11T02:08:42.882Z,15.27
2023-04-11T02:09:45.036Z,17.60
2023-04-11T02:10:48.545Z,14.63
2023-04-11T02:11:50.710Z,17.67
2023-04-11T02:12:52.830Z,19.33
2023-04-11T02:13:54.949Z,18.55
2023-04-11T02:14:57.413Z,18.63
2023-04-11T02:16:09.701Z,13.82
2023-04-11T02:17:12.587Z,18.50
2023-04-11T02:18:14.736Z,16.83
2023-04-11T02:19:16.889Z,17.50
2023-04-11T02:20:19.229Z,17.05
2023-04-11T02:21:21.483Z,17.00
2023-04-11T02:22:23.712Z,21.60
2023-04-11T02:23:25.837Z,16.33
2023-04-11T02:24:28.638Z,16.63
2023-04-11T02:25:31.009Z,18.45
2023-04-11T02:26:34.532Z,16.60
2023-04-11T02:27:36.983Z,19.00
2023-04-11T02:28:39.093Z,18.50
2023-04-11T02:29:41.226Z,13.30
2023-04-11T02:30:43.473Z,15.57
2023-04-11T02:31:48.124Z,18.25
2023-04-11T02:32:50.387Z,17.98
2023-04-11T02:33:52.635Z,13.60
2023-04-11T02:34:54.971Z,12.45
2023-04-11T02:35:57.174Z,19.95
2023-04-11T02:36:59.334Z,17.95
2023-04-11T02:38:01.644Z,15.90
2023-04-11T02:39:03.825Z,16.10
2023-04-11T02:40:08.119Z,16.60
2023-04-11T02:41:10.306Z,14.57
2023-04-11T02:42:14.069Z,17.63
2023-04-11T02:43:16.465Z,17.73
2023-04-11T02:44:19.570Z,16.75
2023-04-11T02:45:22.069Z,18.17
2023-04-11T02:46:24.331Z,20.83
2023-04-11T02:47:26.536Z,13.82
2023-04-11T02:48:28.661Z,16.95
2023-04-11T02:49:30.753Z,21.33
2023-04-11T02:50:32.858Z,18.35
2023-04-11T02:51:35.015Z,22.58
2023-04-11T02:52:39.348Z,17.42
2023-04-11T02:53:41.537Z,20.67
2023-04-11T02:54:43.701Z,23.15
2023-04-11T02:55:45.785Z,43.75
2023-04-11T02:56:47.937Z,32.78
2023-04-11T02:57:51.842Z,49.63
2023-04-11T02:58:54.320Z,46.42
2023-04-11T02:59:56.637Z,52.95
2023-04-11T03:00:58.980Z,47.95
2023-04-11T03:02:01.968Z,44.25
2023-04-11T03:03:06.558Z,34.45
2023-04-11T03:04:08.860Z,27.05
2023-04-11T03:05:11.026Z,22.75
2023-04-11T03:06:13.284Z,16.92
2023-04-11T03:07:15.453Z,16.70
2023-04-11T03:08:17.599Z,17.30
2023-04-11T03:09:20.119Z,19.83
2023-04-11T03:10:22.263Z,17.73
2023-04-11T03:11:24.376Z,17.05
2023-04-11T03:12:26.700Z,21.48
2023-04-11T03:13:30.447Z,16.38
2023-04-11T03:14:32.610Z,17.67
2023-04-11T03:15:34.990Z,18.77
2023-04-11T03:16:37.190Z,18.65
2023-04-11T03:17:39.286Z,16.60
2023-04-11T03:18:41.511Z,19.63
2023-04-11T03:19:45.700Z,17.30
2023-04-11T03:20:47.850Z,13.27
2023-04-11T03:21:49.963Z,17.60
2023-04-11T03:22:52.163Z,15.73
2023-04-11T03:23:54.446Z,15.07
2023-04-11T03:24:56.507Z,14.95
2023-04-11T03:25:58.694Z,16.00
2023-04-11T03:27:01.457Z,15.82
2023-04-11T03:28:03.737Z,14.48
2023-04-11T03:29:07.392Z,13.55
2023-04-11T03:30:10.450Z,14.10
2023-04-11T03:31:13.207Z,17.80
2023-04-11T03:32:15.580Z,14.23
2023-04-11T03:33:18.099Z,15.60
2023-04-11T03:34:20.328Z,15.32
2023-04-11T03:35:22.669Z,13.35
2023-04-11T03:36:26.727Z,15.90
2023-04-11T03:37:28.831Z,12.88
2023-04-11T03:38:31.183Z,19.10
2023-04-11T03:39:33.331Z,15.13
2023-04-11T03:40:35.834Z,12.93
2023-04-11T03:41:37.982Z,21.92
2023-04-11T03:42:40.167Z,21.25
2023-04-11T03:43:42.280Z,20.30
2023-04-11T03:44:45.798Z,17.88
2023-04-11T03:45:47.931Z,14.38
2023-04-11T03:46:50.066Z,18.15
2023-04-11T03:47:52.208Z,20.48
2023-04-11T03:48:54.503Z,20.20
2023-04-11T03:49:56.788Z,18.02
2023-04-11T03:50:58.910Z,19.17
2023-04-11T03:52:01.384Z,17.98
2023-04-11T03:53:03.699Z,17.45
2023-04-11T03:54:05.859Z,13.38
2023-04-11T03:55:08.714Z,12.73
2023-04-11T03:56:10.802Z,12.10
2023-04-11T03:57:13.005Z,14.15
2023-04-11T03:58:15.644Z,13.27
2023-04-11T03:59:17.774Z,14.23
2023-04-11T04:00:21.408Z,18.92
2023-04-11T04:01:23.696Z,12.93
2023-04-11T04:02:26.015Z,16.33
2023-04-11T04:03:30.704Z,14.15
2023-04-11T04:04:33.480Z,15.85
2023-04-11T04:05:35.828Z,13.60
2023-04-11T04:06:37.903Z,16.15
2023-04-11T04:07:40.049Z,11.43
2023-04-11T04:08:42.159Z,19.35
2023-04-11T04:09:44.321Z,14.90
2023-04-11T04:10:47.126Z,16.17
2023-04-11T04:11:49.196Z,16.38
2023-04-11T04:12:52.037Z,11.02
2023-04-11T04:13:54.491Z,19.95
2023-04-11T04:14:56.773Z,11.75
2023-04-11T04:16:02.689Z,16.88
2023-04-11T04:17:05.762Z,13.43
2023-04-11T04:18:07.960Z,12.88
2023-04-11T04:19:10.384Z,20.20
2023-04-11T04:20:12.851Z,17.92
2023-04-11T04:21:15.776Z,22.48
2023-04-11T04:22:18.397Z,21.50
2023-04-11T04:23:20.537Z,19.05
2023-04-11T04:24:26.011Z,17.63
2023-04-11T04:25:28.166Z,22.08
2023-04-11T04:26:31.246Z,15.80
2023-04-11T04:27:33.499Z,14.10
2023-04-11T04:28:35.669Z,23.08
2023-04-11T04:29:46.535Z,15.93
2023-04-11T04:30:54.387Z,20.50
2023-04-11T04:31:57.950Z,19.38
2023-04-11T04:33:00.808Z,14.90
2023-04-11T04:34:08.628Z,16.40
2023-04-11T04:35:11.824Z,15.63
2023-04-11T04:36:13.995Z,18.50
2023-04-11T04:37:21.807Z,19.35
2023-04-11T04:38:26.094Z,17.00
2023-04-11T04:39:30.142Z,14.57
2023-04-11T04:40:32.815Z,23.58
2023-04-11T04:41:36.415Z,21.52
2023-04-11T04:42:41.457Z,16.02
2023-04-11T04:43:44.089Z,17.27
2023-04-11T04:44:46.164Z,15.75
2023-04-11T04:45:48.366Z,16.48
2023-04-11T04:46:53.316Z,17.45
2023-04-11T04:47:56.850Z,14.45
2023-04-11T04:49:00.910Z,16.45
2023-04-11T04:50:04.706Z,21.30
2023-04-11T04:51:07.854Z,12.98
2023-04-11T04:52:10.325Z,20.73
2023-04-11T04:53:12.508Z,14.35
2023-04-11T04:54:15.994Z,17.50
2023-04-11T04:55:18.136Z,14.82
2023-04-11T04:56:20.449Z,21.75
2023-04-11T04:57:22.531Z,14.48
2023-04-11T04:58:24.785Z,14.70
2023-04-11T04:59:27.163Z,16.63
2023-04-11T05:00:29.305Z,16.20
2023-04-11T05:01:33.041Z,18.13
2023-04-11T05:02:37.944Z,13.05
2023-04-11T05:03:41.691Z,14.63
2023-04-11T05:04:44.995Z,13.88
2023-04-11T05:05:47.173Z,22.55
2023-04-11T05:06:54.260Z,18.00
2023-04-11T05:07:56.393Z,17.05
2023-04-11T05:09:01.826Z,16.52
2023-04-11T05:10:04.539Z,16.92
2023-04-11T05:11:06.676Z,17.05
2023-04-11T05:12:11.894Z,20.92
2023-04-11T05:13:14.056Z,18.65
2023-04-11T05:14:16.413Z,25.60
2023-04-11T05:15:18.662Z,22.85
2023-04-11T05:16:22.083Z,25.23
2023-04-11T05:17:25.487Z,17.88
2023-04-11T05:18:29.529Z,17.35
2023-04-11T05:19:33.264Z,17.95
2023-04-11T05:20:35.469Z,17.27
2023-04-11T05:21:38.566Z,17.17
2023-04-11T05:22:42.231Z,16.17
2023-04-11T05:23:44.401Z,16.80
2023-04-11T05:24:46.497Z,19.55
2023-04-11T05:25:48.560Z,19.20
2023-04-11T05:26:50.718Z,23.23
2023-04-11T05:27:52.866Z,22.23
2023-04-11T05:28:55.044Z,17.63
2023-04-11T05:29:57.118Z,23.63
2023-04-11T05:30:59.326Z,22.40
2023-04-11T05:32:01.574Z,31.38
2023-04-11T05:33:03.992Z,18.90
2023-04-11T05:34:06.268Z,25.70
2023-04-11T05:35:10.707Z,17.60
2023-04-11T05:36:14.249Z,22.67
2023-04-11T05:37:16.811Z,20.40
2023-04-11T05:38:20.891Z,16.67
2023-04-11T05:39:23.258Z,21.70
2023-04-11T05:40:25.491Z,22.33
2023-04-11T05:41:27.632Z,17.08
2023-04-11T05:42:29.816Z,19.17
2023-04-11T05:43:31.940Z,18.15
2023-04-11T05:44:37.097Z,19.30
2023-04-11T05:45:39.891Z,22.10
2023-04-11T05:46:44.446Z,21.25
2023-04-11T05:47:46.595Z,18.40
2023-04-11T05:48:48.796Z,21.02
2023-04-11T05:49:51.058Z,19.90
2023-04-11T05:50:54.651Z,22.80
2023-04-11T05:51:56.768Z,16.02
2023-04-11T05:52:59.912Z,16.98
2023-04-11T05:54:02.026Z,19.45
2023-04-11T05:55:04.733Z,22.95
2023-04-11T05:56:07.864Z,33.05
2023-04-11T05:57:09.941Z,23.08
2023-04-11T05:58:12.110Z,22.83
2023-04-11T05:59:14.244Z,22.65
2023-04-11T06:00:17.437Z,24.70
2023-04-11T06:01:19.559Z,29.15
2023-04-11T06:02:22.311Z,15.27
2023-04-11T06:03:24.681Z,18.92
2023-04-11T06:04:27.025Z,19.30
2023-04-11T06:05:31.570Z,16.33
2023-04-11T06:06:36.153Z,18.20
2023-04-11T06:07:39.402Z,26.38
2023-04-11T06:08:41.653Z,18.63
2023-04-11T06:09:45.561Z,20.33
2023-04-11T06:10:47.658Z,22.30
2023-04-11T06:11:49.823Z,21.92
2023-04-11T06:12:52.089Z,25.75
2023-04-11T06:13:54.303Z,22.05
2023-04-11T06:14:56.576Z,25.88
2023-04-11T06:15:58.970Z,20.30
2023-04-11T06:17:01.147Z,21.67
2023-04-11T06:18:03.595Z,20.58
2023-04-11T06:19:05.857Z,22.02
2023-04-11T06:20:08.876Z,20.20
2023-04-11T06:21:10.941Z,20.65
2023-04-11T06:22:14.494Z,17.02
2023-04-11T06:23:16.637Z,19.65
2023-04-11T06:24:18.830Z,20.35
2023-04-11T06:25:21.531Z,16.02
2023-04-11T06:26:23.719Z,18.42
2023-04-11T06:27:26.637Z,17.30
2023-04-11T06:28:28.948Z,26.05
2023-04-11T06:29:33.346Z,20.70
2023-04-11T06:30:35.459Z,22.25
2023-04-11T06:31:37.781Z,21.85
2023-04-11T06:32:40.054Z,23.95
2023-04-11T06:33:42.190Z,28.35
2023-04-11T06:34:44.304Z,24.38
2023-04-11T06:35:46.437Z,18.20
2023-04-11T06:36:49.980Z,21.92
2023-04-11T06:37:53.570Z,15.23
2023-04-11T06:38:55.811Z,18.15
2023-04-11T06:39:59.200Z,21.50
2023-04-11T06:41:01.290Z,14.02
2023-04-11T06:42:03.877Z,11.23
2023-04-11T06:43:06.058Z,14.00
2023-04-11T06:44:08.189Z,7.28
2023-04-11T06:45:12.040Z,8.98
2023-04-11T06:46:14.289Z,10.57
2023-04-11T06:47:16.744Z,7.93
2023-04-11T06:48:20.446Z,5.20
2023-04-11T06:49:23.383Z,5.72
2023-04-11T06:50:25.644Z,7.55
2023-04-11T06:51:27.727Z,7.85
2023-04-11T06:52:30.581Z,7.13
2023-04-11T06:53:34.060Z,9.25
2023-04-11T06:54:36.268Z,6.90
2023-04-11T06:55:38.379Z,10.02
2023-04-11T06:56:40.567Z,5.45
2023-04-11T06:57:44.000Z,8.50
2023-04-11T06:58:46.200Z,11.35
2023-04-11T06:59:48.305Z,14.75
2023-04-11T07:00:51.517Z,8.55
2023-04-11T07:01:53.725Z,11.93
2023-04-11T07:02:56.053Z,9.05
2023-04-11T07:03:59.256Z,12.48
2023-04-11T07:05:06.660Z,12.23
2023-04-11T07:06:09.149Z,8.35
2023-04-11T07:07:11.328Z,8.45
2023-04-11T07:08:13.450Z,10.23
2023-04-11T07:09:17.016Z,7.82
2023-04-11T07:10:19.291Z,10.00
2023-04-11T07:11:21.842Z,9.43
2023-04-11T07:12:23.987Z,9.27
2023-04-11T07:13:26.102Z,10.20
2023-04-11T07:14:28.321Z,7.00
2023-04-11T07:15:30.425Z,9.35
2023-04-11T07:16:32.956Z,9.27
2023-04-11T07:17:35.657Z,18.67
2023-04-11T07:18:37.952Z,10.80
2023-04-11T07:19:40.051Z,8.00
2023-04-11T07:20:42.344Z,9.50
2023-04-11T07:21:44.465Z,7.00
2023-04-11T07:22:46.573Z,9.07
2023-04-11T07:23:48.918Z,12.07
2023-04-11T07:24:55.260Z,12.50
2023-04-11T07:25:57.813Z,13.30
2023-04-11T07:27:01.739Z,11.85
2023-04-11T07:28:08.563Z,15.48
2023-04-11T07:29:13.113Z,13.70
2023-04-11T07:30:17.242Z,9.60
2023-04-11T07:31:21.738Z,8.70
2023-04-11T07:32:24.760Z,9.63
2023-04-11T07:33:27.327Z,11.30
2023-04-11T07:34:29.415Z,8.75
2023-04-11T07:35:33.529Z,7.85
2023-04-11T07:36:35.803Z,7.50
2023-04-11T07:37:38.263Z,6.30
2023-04-11T07:38:41.300Z,7.75
2023-04-11T07:39:43.399Z,11.35
2023-04-11T07:40:46.897Z,9.98
2023-04-11T07:41:49.001Z,8.40
2023-04-11T07:42:51.219Z,13.18
2023-04-11T07:43:53.404Z,8.40
2023-04-11T07:44:55.590Z,9.75
2023-04-11T07:45:58.784Z,11.02
2023-04-11T07:47:01.066Z,9.27
2023-04-11T07:48:03.196Z,8.85
2023-04-11T07:49:05.480Z,8.60
2023-04-11T07:50:07.811Z,7.00
2023-04-11T07:51:09.960Z,7.07
2023-04-11T07:52:14.194Z,7.97
2023-04-11T07:53:16.784Z,10.02
2023-04-11T07:54:18.930Z,6.32
2023-04-11T07:55:21.144Z,9.68
2023-04-11T07:56:24.601Z,7.50
2023-04-11T07:57:26.717Z,7.95
2023-04-11T07:58:28.889Z,7.78
2023-04-11T07:59:30.978Z,6.05
2023-04-11T08:00:33.830Z,6.97
2023-04-11T08:01:36.113Z,8.02
2023-04-11T08:02:38.412Z,8.85
2023-04-11T08:03:40.781Z,9.60
2023-04-11T08:04:45.902Z,8.10
2023-04-11T08:05:48.028Z,8.88
2023-04-11T08:06:50.145Z,9.18
2023-04-11T08:07:54.674Z,8.48
2023-04-11T08:09:00.907Z,7.25
2023-04-11T08:10:05.657Z,9.18
2023-04-11T08:11:08.240Z,10.15
2023-04-11T08:12:11.848Z,9.80
2023-04-11T08:13:13.990Z,6.60
2023-04-11T08:14:16.149Z,10.23
2023-04-11T08:15:20.546Z,10.20
2023-04-11T08:16:22.735Z,7.95
2023-04-11T08:17:29.187Z,9.45
2023-04-11T08:18:32.943Z,7.90
2023-04-11T08:19:35.117Z,10.88
2023-04-11T08:20:37.334Z,7.75
2023-04-11T08:21:39.419Z,10.70
2023-04-11T08:22:44.515Z,7.05
2023-04-11T08:23:47.592Z,10.75
2023-04-11T08:24:49.665Z,8.70
2023-04-11T08:25:51.760Z,12.73
2023-04-11T08:26:53.857Z,9.13
2023-04-11T08:27:57.357Z,10.27
2023-04-11T08:28:59.461Z,10.80
2023-04-11T08:30:01.956Z,8.48
2023-04-11T08:31:05.696Z,8.60
2023-04-11T08:32:07.824Z,6.22
2023-04-11T08:33:10.508Z,10.77
2023-04-11T08:34:12.976Z,13.07
2023-04-11T08:35:15.090Z,7.57
2023-04-11T08:36:17.166Z,8.70
2023-04-11T08:37:19.363Z,8.85
2023-04-11T08:38:21.489Z,6.20
2023-04-11T08:39:23.611Z,12.27
2023-04-11T08:40:26.972Z,7.78
2023-04-11T08:41:33.056Z,7.13
2023-04-11T08:42:35.800Z,6.60
2023-04-11T08:43:44.286Z,6.15
2023-04-11T08:44:53.198Z,5.75
2023-04-11T08:45:55.496Z,6.60
2023-04-11T08:47:00.021Z,6.60
2023-04-11T08:48:02.600Z,5.65
2023-04-11T08:49:04.850Z,4.65
2023-04-11T08:50:08.381Z,5.68
2023-04-11T08:51:12.604Z,8.70
2023-04-11T08:52:15.713Z,7.78
2023-04-11T08:53:22.787Z,6.20
2023-04-11T08:54:25.061Z,8.38
2023-04-11T08:55:27.172Z,6.32
2023-04-11T08:56:29.339Z,7.93
2023-04-11T08:57:31.814Z,6.43
2023-04-11T08:58:34.365Z,5.57
2023-04-11T08:59:48.329Z,6.07
2023-04-11T09:00:50.558Z,7.53
2023-04-11T09:01:52.904Z,5.75
2023-04-11T09:02:59.480Z,5.70
2023-04-11T09:04:05.452Z,17.90
2023-04-11T09:05:08.580Z,6.38
2023-04-11T09:06:11.579Z,5.75
2023-04-11T09:07:13.985Z,6.63
2023-04-11T09:08:17.197Z,5.32
2023-04-11T09:09:30.332Z,5.13
2023-04-11T09:10:33.043Z,7.18
2023-04-11T09:11:53.102Z,7.90
2023-04-11T09:12:56.013Z,5.10
2023-04-11T09:14:07.769Z,8.45
2023-04-11T09:15:20.183Z,10.10
2023-04-11T09:16:22.868Z,6.57
2023-04-11T09:17:25.100Z,6.07
2023-04-11T09:18:34.111Z,9.35
2023-04-11T09:19:36.356Z,7.32
2023-04-11T09:20:38.631Z,8.57
2023-04-11T09:21:50.028Z,7.07
2023-04-11T09:22:53.505Z,8.52
2023-04-11T09:24:13.382Z,6.40
2023-04-11T09:25:15.577Z,12.55
2023-04-11T09:26:26.936Z,6.13
2023-04-11T09:27:29.022Z,8.10
2023-04-11T09:28:40.640Z,7.65
2023-04-11T09:29:45.559Z,8.00
2023-04-11T09:30:52.276Z,5.00
2023-04-11T09:31:54.734Z,8.43
2023-04-11T09:32:56.941Z,4.45
2023-04-11T09:34:00.210Z,5.00
2023-04-11T09:35:09.395Z,7.93
2023-04-11T09:36:30.645Z,10.07
2023-04-11T09:38:46.982Z,8.80
2023-04-11T09:39:58.888Z,7.88
2023-04-11T09:41:03.089Z,6.88
2023-04-11T09:42:24.208Z,8.55
2023-04-11T09:43:26.668Z,5.38
2023-04-11T09:44:38.583Z,13.23
2023-04-11T09:45:53.623Z,7.47
2023-04-11T09:46:58.240Z,7.80
2023-04-11T09:48:00.563Z,5.57
2023-04-11T09:49:03.470Z,10.75
2023-04-11T09:50:07.278Z,8.18
2023-04-11T09:51:09.766Z,6.90
2023-04-11T09:52:12.485Z,7.60
2023-04-11T09:53:14.922Z,5.95
2023-04-11T09:54:18.273Z,5.05
2023-04-11T09:55:22.633Z,4.93
2023-04-11T09:56:26.641Z,5.68
2023-04-11T09:57:31.451Z,5.95
2023-04-11T09:58:36.580Z,4.90
2023-04-11T09:59:40.577Z,6.43
2023-04-11T10:00:43.700Z,6.63
2023-04-11T10:01:47.183Z,5.35
2023-04-11T10:02:55.014Z,4.45
2023-04-11T10:03:58.290Z,5.05
2023-04-11T10:05:04.359Z,6.28
2023-04-11T10:06:08.539Z,7.97
2023-04-11T10:07:14.565Z,7.38
2023-04-11T10:08:25.131Z,6.95
2023-04-11T10:09:27.598Z,5.53
2023-04-11T10:10:30.391Z,7.82
2023-04-11T10:11:32.851Z,7.38
2023-04-11T10:12:35.503Z,4.85
2023-04-11T10:13:39.472Z,4.65
2023-04-11T10:14:45.519Z,7.65
2023-04-11T10:16:06.264Z,9.32
2023-04-11T10:17:18.607Z,4.93
2023-04-11T10:18:24.573Z,7.72
2023-04-11T10:19:27.705Z,6.82
2023-04-11T10:20:46.936Z,9.07
2023-04-11T10:21:49.041Z,5.35
2023-04-11T10:23:01.154Z,8.90
2023-04-11T10:24:11.859Z,8.55
2023-04-11T10:25:19.338Z,7.45
2023-04-11T10:26:21.469Z,9.15
2023-04-11T10:27:50.084Z,12.80
2023-04-11T10:28:54.234Z,8.80
2023-04-11T10:29:56.634Z,6.30
2023-04-11T10:31:02.161Z,9.32
2023-04-11T10:32:11.239Z,7.40
2023-04-11T10:33:15.729Z,7.45
2023-04-11T10:34:19.246Z,6.75
2023-04-11T10:35:22.890Z,8.82
2023-04-11T10:36:25.096Z,8.48
2023-04-11T10:37:32.888Z,10.98
2023-04-11T10:38:50.014Z,8.23
2023-04-11T10:40:14.826Z,9.65
2023-04-11T10:41:27.028Z,8.80
2023-04-11T10:42:29.687Z,10.25
2023-04-11T10:43:31.877Z,8.73
2023-04-11T10:44:34.125Z,8.93
2023-04-11T10:45:39.969Z,6.20
2023-04-11T10:46:49.639Z,8.75
2023-04-11T10:48:08.653Z,6.13
2023-04-11T10:49:10.866Z,8.50
2023-04-11T10:50:41.169Z,7.97
2023-04-11T10:51:43.407Z,8.20
2023-04-11T10:52:45.622Z,8.45
2023-04-11T10:53:48.118Z,6.05
2023-04-11T10:54:51.783Z,6.13
2023-04-11T10:55:54.221Z,5.35
2023-04-11T10:56:56.953Z,5.28
2023-04-11T10:58:08.363Z,6.53
2023-04-11T10:59:47.958Z,6.47
2023-04-11T11:01:31.321Z,7.93
2023-04-11T11:02:41.445Z,10.57
2023-04-11T11:03:57.160Z,6.82
2023-04-11T11:05:01.835Z,8.18
2023-04-11T11:06:07.349Z,6.20
2023-04-11T11:07:17.480Z,10.43
2023-04-11T11:08:27.300Z,6.93
2023-04-11T11:09:30.577Z,5.68
2023-04-11T11:10:40.504Z,11.73
2023-04-11T11:11:42.821Z,6.40
2023-04-11T11:12:57.284Z,6.60
2023-04-11T11:14:01.149Z,6.90
2023-04-11T11:15:13.603Z,5.72
2023-04-11T11:16:17.656Z,9.07
2023-04-11T11:17:19.996Z,8.30
2023-04-11T11:18:22.322Z,7.43
2023-04-11T11:19:24.606Z,9.57
2023-04-11T11:20:26.929Z,6.18
2023-04-11T11:21:34.226Z,10.57
2023-04-11T11:22:36.309Z,9.82
2023-04-11T11:23:38.501Z,7.80
2023-04-11T11:24:40.793Z,8.25
2023-04-11T11:25:55.863Z,8.50
2023-04-11T11:26:59.006Z,7.32
2023-04-11T11:28:03.474Z,10.50
2023-04-11T11:29:05.929Z,7.63
2023-04-11T11:30:11.890Z,7.65
2023-04-11T11:31:14.101Z,5.43
2023-04-11T11:32:22.250Z,6.43
2023-04-11T11:33:26.695Z,6.43
2023-04-11T11:34:30.059Z,5.82
2023-04-11T11:35:32.205Z,6.57
2023-04-11T11:36:39.290Z,9.20
2023-04-11T11:37:41.951Z,8.00
2023-04-11T11:38:44.807Z,9.35
2023-04-11T11:39:48.295Z,12.93
2023-04-11T11:40:50.793Z,8.32
2023-04-11T11:41:53.642Z,7.38
2023-04-11T11:42:56.129Z,8.32
2023-04-11T11:43:59.675Z,6.25
2023-04-11T11:45:14.594Z,7.55
2023-04-11T11:46:18.236Z,8.98
2023-04-11T11:47:20.513Z,6.70
2023-04-11T11:48:23.307Z,8.80
2023-04-11T11:49:25.650Z,8.82
2023-04-11T11:50:29.236Z,7.07
2023-04-11T11:51:42.918Z,9.68
2023-04-11T11:52:45.730Z,6.30
2023-04-11T11:54:03.738Z,8.75
2023-04-11T11:55:11.378Z,8.57
2023-04-11T11:56:14.779Z,14.88
2023-04-11T11:57:22.913Z,6.53
2023-04-11T11:58:25.197Z,9.32
2023-04-11T11:59:28.032Z,8.95
2023-04-11T12:00:31.796Z,9.90
2023-04-11T12:01:34.964Z,11.18
2023-04-11T12:02:38.293Z,8.88
2023-04-11T12:03:40.919Z,12.80
2023-04-11T12:04:43.372Z,10.20
2023-04-11T12:05:47.738Z,9.10
2023-04-11T12:06:51.819Z,9.27
2023-04-11T12:07:54.931Z,12.68
2023-04-11T12:09:02.348Z,13.02
2023-04-11T12:10:09.405Z,7.65
2023-04-11T12:11:14.843Z,9.57
2023-04-11T12:12:19.902Z,7.65
2023-04-11T12:13:25.388Z,13.35
2023-04-11T12:14:29.688Z,14.80
2023-04-11T12:15:35.879Z,13.68
2023-04-11T12:16:38.337Z,10.68
2023-04-11T12:17:41.106Z,10.13
2023-04-11T12:18:44.264Z,14.63
2023-04-11T12:19:46.359Z,12.23
2023-04-11T12:20:48.825Z,11.63
2023-04-11T12:21:53.125Z,9.90
2023-04-11T12:22:56.255Z,9.63
2023-04-11T12:23:58.666Z,7.35
2023-04-11T12:25:08.760Z,7.38
2023-04-11T12:26:11.361Z,8.50
2023-04-11T12:27:13.546Z,8.25
2023-04-11T12:28:16.448Z,10.73
2023-04-11T12:29:18.612Z,13.10
2023-04-11T12:30:20.751Z,9.45
2023-04-11T12:31:23.073Z,7.28
2023-04-11T12:32:27.476Z,10.15
2023-04-11T12:33:29.651Z,11.75
2023-04-11T12:34:31.805Z,9.20
2023-04-11T12:35:33.986Z,8.85
2023-04-11T12:36:36.935Z,8.77
2023-04-11T12:37:41.255Z,8.95
2023-04-11T12:38:43.434Z,9.82
2023-04-11T12:39:45.534Z,8.25
2023-04-11T12:40:47.680Z,11.63
2023-04-11T12:41:49.788Z,9.52
2023-04-11T12:42:56.339Z,8.82
2023-04-11T12:44:02.223Z,8.00
2023-04-11T12:45:05.809Z,6.35
2023-04-11T12:46:08.128Z,12.27
2023-04-11T12:47:10.681Z,7.00
2023-04-11T12:48:13.006Z,5.22
2023-04-11T12:49:15.103Z,10.05
2023-04-11T12:50:17.518Z,7.80
2023-04-11T12:51:19.685Z,8.50
2023-04-11T12:52:22.533Z,8.05
2023-04-11T12:53:26.034Z,9.77
2023-04-11T12:54:28.334Z,9.05
2023-04-11T12:55:30.823Z,12.48
2023-04-11T12:56:33.021Z,7.82
2023-04-11T12:57:35.771Z,8.52
2023-04-11T12:58:37.925Z,5.88
2023-04-11T12:59:40.388Z,4.97
2023-04-11T13:00:42.722Z,7.55
2023-04-11T13:01:44.916Z,4.85
2023-04-11T13:02:48.683Z,5.25
2023-04-11T13:03:51.308Z,9.25
2023-04-11T13:04:54.060Z,7.13
2023-04-11T13:05:56.394Z,6.35
2023-04-11T13:07:01.481Z,5.30
2023-04-11T13:08:04.269Z,8.57
2023-04-11T13:09:07.973Z,7.82
2023-04-11T13:10:10.607Z,8.07
2023-04-11T13:11:12.773Z,10.18
2023-04-11T13:12:15.003Z,6.57
2023-04-11T13:13:18.817Z,7.68
2023-04-11T13:14:21.151Z,5.72
2023-04-11T13:15:23.285Z,8.90
2023-04-11T13:16:25.621Z,6.30
2023-04-11T13:17:27.793Z,6.95
2023-04-11T13:18:32.205Z,10.23
2023-04-11T13:19:34.369Z,6.82
2023-04-11T13:20:36.602Z,9.18
2023-04-11T13:21:38.702Z,7.82
2023-04-11T13:22:41.926Z,5.63
2023-04-11T13:23:44.220Z,5.22
2023-04-11T13:24:47.829Z,5.63
2023-04-11T13:25:50.107Z,5.78
2023-04-11T13:26:52.317Z,5.85
2023-04-11T13:27:55.771Z,9.38
2023-04-11T13:28:58.176Z,9.23
2023-04-11T13:30:00.515Z,6.70
2023-04-11T13:31:02.711Z,7.57
2023-04-11T13:32:04.990Z,7.45
2023-04-11T13:33:07.203Z,9.35
2023-04-11T13:34:09.357Z,4.53
2023-04-11T13:35:11.489Z,4.93
2023-04-11T13:36:13.650Z,5.18
2023-04-11T13:37:15.896Z,4.38
2023-04-11T13:38:18.119Z,5.95
2023-04-11T13:39:20.222Z,5.25
2023-04-11T13:40:23.684Z,8.48
2023-04-11T13:41:26.084Z,5.70
2023-04-11T13:42:28.223Z,6.88
2023-04-11T13:43:30.879Z,8.55
2023-04-11T13:44:33.073Z,7.80
2023-04-11T13:45:35.457Z,4.43
2023-04-11T13:46:37.776Z,5.10
2023-04-11T13:47:39.980Z,4.80
2023-04-11T13:48:42.124Z,7.72
2023-04-11T13:49:44.565Z,7.80
2023-04-11T13:50:46.671Z,8.27
2023-04-11T13:51:48.841Z,5.53
2023-04-11T13:52:50.945Z,4.50
2023-04-11T13:53:53.055Z,7.75
2023-04-11T13:54:55.145Z,6.80